Time;durP1;ratioP1;P1;durP2;ratioP2;P2;SDS_P1;SDS_P2;PMS_P1;PMS_P2;Temp;Humidity;BMP_temperature;BMP_pressure;BME280_temperature;BME280_humidity;BME280_pressure;Samples;Min_cycle;Max_cycle;Signal;HPM_P1;HPM_P2
2022/10/08 00:00:55;;;;;;;20.23;6.57;;;;;;;;;;4998577;28;20057;-74
2022/10/08 00:03:23;;;;;;;20.35;7.07;;;;;;;;;;4998328;28;20112;-74
2022/10/08 00:05:55;;;;;;;21.38;6.03;;;;;;;;;;5015454;28;20057;-73
2022/10/08 00:08:22;;;;;;;18.40;6.13;;;;;;;;;;4998278;28;20073;-73
2022/10/08 00:11:08;;;;;;;21.13;5.80;;;;;;;;;;4997618;28;20042;-74
2022/10/08 00:13:40;;;;;;;19.35;5.85;;;;;;;;;;4998503;28;20085;-73
2022/10/08 00:16:18;;;;;;;19.33;5.05;;;;;;;;;;4998344;28;20132;-73
2022/10/08 00:18:45;;;;;;;23.35;6.22;;;;;;;;;;4981686;28;20045;-73
2022/10/08 00:21:15;;;;;;;18.67;5.80;;;;;;;;;;4997690;28;20065;-74
2022/10/08 00:23:42;;;;;;;18.85;5.57;;;;;;;;;;4997938;28;20057;-76
2022/10/08 00:26:08;;;;;;;18.50;5.60;;;;;;;;;;4981854;28;20038;-72
2022/10/08 00:28:34;;;;;;;;;;;;;;;;;;4997994;28;20095;-74
2022/10/08 00:31:10;;;;;;;17.85;5.93;;;;;;;;;;4997426;28;19921;-74
2022/10/08 00:33:37;;;;;;;19.20;6.63;;;;;;;;;;4997848;28;20042;-74
2022/10/08 00:36:07;;;;;;;15.30;6.18;;;;;;;;;;4981383;28;20053;-73
2022/10/08 00:38:34;;;;;;;16.92;6.05;;;;;;;;;;4981511;28;20100;-73
2022/10/08 00:41:00;;;;;;;;;;;;;;;;;;4997607;28;20398;-73
2022/10/08 00:43:43;;;;;;;19.00;5.95;;;;;;;;;;4997816;28;19921;-72
2022/10/08 00:46:29;;;;;;;20.02;5.25;;;;;;;;;;4997705;28;20085;-72
2022/10/08 00:49:24;;;;;;;13.02;5.20;;;;;;;;;;4997628;28;20054;-72
2022/10/08 00:51:51;;;;;;;17.10;4.95;;;;;;;;;;4995120;28;20390;-73
2022/10/08 00:54:18;;;;;;;14.95;5.60;;;;;;;;;;5015186;28;20050;-72
2022/10/08 00:56:46;;;;;;;16.52;5.38;;;;;;;;;;4981782;28;20186;-72
2022/10/08 00:59:13;;;;;;;15.05;5.00;;;;;;;;;;5014615;28;20057;-72
2022/10/08 01:01:42;;;;;;;16.55;5.07;;;;;;;;;;4981013;28;20500;-70
2022/10/08 01:04:08;;;;;;;15.65;5.32;;;;;;;;;;4980921;28;20053;-73
2022/10/08 01:06:47;;;;;;;15.82;4.53;;;;;;;;;;4980846;28;20046;-77
2022/10/08 01:09:18;;;;;;;17.23;4.93;;;;;;;;;;5014108;28;20045;-73
2022/10/08 01:11:57;;;;;;;16.95;5.40;;;;;;;;;;4997133;28;20052;-74
2022/10/08 01:14:38;;;;;;;15.35;4.65;;;;;;;;;;4980489;28;20054;-77
2022/10/08 01:17:22;;;;;;;15.32;4.28;;;;;;;;;;4996361;28;20410;-72
2022/10/08 01:20:05;;;;;;;16.25;4.78;;;;;;;;;;4980253;28;20068;-77
2022/10/08 01:22:46;;;;;;;14.95;4.30;;;;;;;;;;5014105;28;20135;-71
2022/10/08 01:25:34;;;;;;;14.57;4.78;;;;;;;;;;4996535;28;20501;-72
2022/10/08 01:28:09;;;;;;;18.33;5.05;;;;;;;;;;4996883;28;20054;-73
2022/10/08 01:30:38;;;;;;;14.82;4.82;;;;;;;;;;4979816;28;20054;-71
2022/10/08 01:33:34;;;;;;;16.25;4.82;;;;;;;;;;4996830;28;20045;-71
2022/10/08 01:36:01;;;;;;;15.15;4.20;;;;;;;;;;4979957;28;20057;-71
2022/10/08 01:38:29;;;;;;;14.73;4.30;;;;;;;;;;4996395;28;20079;-71
2022/10/08 01:40:58;;;;;;;14.50;4.00;;;;;;;;;;5013426;28;20050;-72
2022/10/08 01:43:26;;;;;;;12.93;3.85;;;;;;;;;;4995991;28;20060;-71
2022/10/08 01:45:55;;;;;;;15.40;4.15;;;;;;;;;;4979686;28;20164;-73
2022/10/08 01:48:24;;;;;;;17.27;4.40;;;;;;;;;;4996012;28;20050;-71
2022/10/08 01:50:57;;;;;;;12.60;3.72;;;;;;;;;;4995133;28;20128;-72
2022/10/08 01:53:25;;;;;;;16.10;4.20;;;;;;;;;;5013347;28;20132;-71
2022/10/08 01:55:52;;;;;;;17.48;4.47;;;;;;;;;;5013277;28;20054;-71
2022/10/08 01:58:27;;;;;;;12.10;3.50;;;;;;;;;;4995832;28;20038;-72
2022/10/08 02:00:55;;;;;;;13.48;3.83;;;;;;;;;;4996102;28;20058;-75
2022/10/08 02:03:21;;;;;;;13.02;3.90;;;;;;;;;;4995874;28;20046;-72
2022/10/08 02:05:49;;;;;;;14.80;4.13;;;;;;;;;;4995784;28;20584;-73
2022/10/08 02:08:15;;;;;;;13.90;4.15;;;;;;;;;;4979452;28;20058;-73
2022/10/08 02:10:42;;;;;;;16.35;4.57;;;;;;;;;;4979526;28;20046;-73
2022/10/08 02:13:08;;;;;;;13.40;4.10;;;;;;;;;;4995714;28;20121;-74
2022/10/08 02:15:34;;;;;;;;;;;;;;;;;;4996114;28;20058;-73
2022/10/08 02:18:13;;;;;;;13.90;3.97;;;;;;;;;;4995364;28;19931;-74
2022/10/08 02:20:44;;;;;;;13.73;4.53;;;;;;;;;;4995320;28;20093;-76
2022/10/08 02:23:14;;;;;;;13.88;4.10;;;;;;;;;;4995639;28;20438;-73
2022/10/08 02:25:45;;;;;;;15.95;4.20;;;;;;;;;;4995590;28;20046;-73
2022/10/08 02:28:30;;;;;;;16.92;4.28;;;;;;;;;;4995638;28;20116;-74
2022/10/08 02:31:13;;;;;;;15.73;4.10;;;;;;;;;;4995348;28;20038;-73
2022/10/08 02:33:43;;;;;;;15.13;4.05;;;;;;;;;;4995387;28;20053;-75
2022/10/08 02:36:11;;;;;;;14.45;4.43;;;;;;;;;;4995968;28;20192;-73
2022/10/08 02:38:39;;;;;;;15.35;4.22;;;;;;;;;;4995473;28;20112;-74
2022/10/08 02:41:07;;;;;;;13.20;4.15;;;;;;;;;;4995395;28;20050;-74
2022/10/08 02:43:34;;;;;;;16.25;4.40;;;;;;;;;;4995544;28;20046;-75
2022/10/08 02:46:08;;;;;;;14.75;4.40;;;;;;;;;;4995341;28;20053;-75
2022/10/08 02:48:35;;;;;;;19.25;4.70;;;;;;;;;;4995686;28;20054;-74
2022/10/08 02:51:05;;;;;;;15.77;4.85;;;;;;;;;;4995784;28;20130;-74
2022/10/08 02:53:32;;;;;;;17.38;4.70;;;;;;;;;;4995412;28;20046;-73
2022/10/08 02:56:14;;;;;;;15.05;4.70;;;;;;;;;;4995374;28;20148;-73
2022/10/08 02:58:42;;;;;;;16.13;4.63;;;;;;;;;;5013077;28;20046;-73
2022/10/08 03:01:11;;;;;;;15.02;4.13;;;;;;;;;;4995227;28;20402;-73
2022/10/08 03:03:39;;;;;;;13.75;4.55;;;;;;;;;;4982940;28;20054;-73
2022/10/08 03:06:07;;;;;;;17.23;4.40;;;;;;;;;;5016170;28;20053;-74
2022/10/08 03:08:35;;;;;;;15.88;4.25;;;;;;;;;;4998787;28;20060;-73
2022/10/08 03:11:02;;;;;;;17.90;5.00;;;;;;;;;;4998537;28;20135;-73
2022/10/08 03:13:28;;;;;;;17.98;4.53;;;;;;;;;;4999264;28;20061;-74
2022/10/08 03:15:55;;;;;;;14.05;4.60;;;;;;;;;;4982621;28;20054;-72
2022/10/08 03:18:23;;;;;;;14.95;4.70;;;;;;;;;;5015987;28;20128;-74
2022/10/08 03:20:50;;;;;;;15.55;5.00;;;;;;;;;;4998327;28;20093;-74
2022/10/08 03:23:17;;;;;;;14.57;4.53;;;;;;;;;;4983260;28;20135;-72
2022/10/08 03:25:44;;;;;;;19.88;4.85;;;;;;;;;;4998789;28;20072;-73
2022/10/08 03:28:10;;;;;;;16.33;4.78;;;;;;;;;;4998212;28;20061;-74
2022/10/08 03:30:36;;;;;;;;;;;;;;;;;;4998596;28;20448;-74
2022/10/08 03:33:02;;;;;;;16.65;5.20;;;;;;;;;;4998520;28;19922;-73
2022/10/08 03:35:28;;;;;;;;;;;;;;;;;;5016501;28;20410;-74
2022/10/08 03:37:54;;;;;;;18.58;5.57;;;;;;;;;;4999223;28;19928;-74
2022/10/08 03:40:21;;;;;;;18.48;5.28;;;;;;;;;;4982215;28;20132;-74
2022/10/08 03:42:47;;;;;;;17.40;5.40;;;;;;;;;;4999031;28;20050;-73
2022/10/08 03:45:13;;;;;;;17.30;6.18;;;;;;;;;;4982057;28;20099;-73
2022/10/08 03:47:39;;;;;;;17.55;5.40;;;;;;;;;;4981973;28;20401;-74
2022/10/08 03:50:05;;;;;;;18.42;6.40;;;;;;;;;;4998047;28;20126;-74
2022/10/08 03:52:31;;;;;;;;;;;;;;;;;;5015751;28;20137;-73
2022/10/08 03:54:57;;;;;;;19.98;6.47;;;;;;;;;;4998105;28;20007;-74
2022/10/08 03:57:23;;;;;;;21.15;6.40;;;;;;;;;;4997675;28;20057;-73
2022/10/08 03:59:49;;;;;;;19.45;6.30;;;;;;;;;;4998069;28;20057;-73
2022/10/08 04:02:15;;;;;;;19.65;6.18;;;;;;;;;;4997730;28;20072;-74
2022/10/08 04:04:41;;;;;;;19.85;6.20;;;;;;;;;;4997988;28;20085;-73
2022/10/08 04:07:07;;;;;;;22.27;6.13;;;;;;;;;;5015106;28;20041;-74
2022/10/08 04:09:33;;;;;;;22.02;5.97;;;;;;;;;;5015462;28;20108;-74
2022/10/08 04:11:59;;;;;;;14.23;5.75;;;;;;;;;;5015357;28;20042;-74
2022/10/08 04:14:25;;;;;;;18.13;6.72;;;;;;;;;;4997489;28;20058;-75
2022/10/08 04:16:53;;;;;;;17.90;5.90;;;;;;;;;;5014982;28;20183;-74
2022/10/08 04:19:19;;;;;;;18.17;5.82;;;;;;;;;;5014597;28;20491;-74
2022/10/08 04:21:45;;;;;;;21.20;6.43;;;;;;;;;;5014539;28;20062;-73
2022/10/08 04:24:11;;;;;;;20.20;6.10;;;;;;;;;;4997672;28;20212;-74
2022/10/08 04:26:37;;;;;;;18.23;5.80;;;;;;;;;;4981594;28;20050;-73
2022/10/08 04:29:04;;;;;;;19.48;6.28;;;;;;;;;;5014693;28;20049;-74
2022/10/08 04:31:30;;;;;;;19.35;5.38;;;;;;;;;;5014651;28;20127;-74
2022/10/08 04:33:56;;;;;;;18.83;5.82;;;;;;;;;;5014690;28;20042;-74
2022/10/08 04:36:23;;;;;;;19.40;5.75;;;;;;;;;;5014621;28;20045;-74
2022/10/08 04:38:49;;;;;;;19.65;5.70;;;;;;;;;;5014651;28;20052;-73
2022/10/08 04:41:21;;;;;;;19.30;5.80;;;;;;;;;;5014524;28;20053;-75
2022/10/08 04:43:47;;;;;;;20.77;6.30;;;;;;;;;;4997162;28;20046;-74
2022/10/08 04:46:15;;;;;;;22.10;5.55;;;;;;;;;;4996865;28;20616;-74
2022/10/08 04:48:45;;;;;;;18.25;5.72;;;;;;;;;;5014482;28;20075;-74
2022/10/08 04:51:11;;;;;;;24.10;5.90;;;;;;;;;;4997515;28;20045;-74
2022/10/08 04:53:37;;;;;;;15.48;4.78;;;;;;;;;;4996935;28;20050;-74
2022/10/08 04:56:11;;;;;;;18.33;5.28;;;;;;;;;;4997264;28;20054;-74
2022/10/08 04:58:37;;;;;;;22.77;4.95;;;;;;;;;;4997461;28;20125;-74
2022/10/08 05:01:07;;;;;;;18.08;4.90;;;;;;;;;;4996723;28;20080;-73
2022/10/08 05:03:37;;;;;;;21.75;5.38;;;;;;;;;;4981369;28;20041;-73
2022/10/08 05:06:03;;;;;;;27.17;5.75;;;;;;;;;;4996901;28;20132;-73
2022/10/08 05:08:30;;;;;;;17.55;5.65;;;;;;;;;;4980749;28;20135;-73
2022/10/08 05:10:56;;;;;;;16.63;5.30;;;;;;;;;;4996510;28;20052;-73
2022/10/08 05:13:22;;;;;;;16.58;6.05;;;;;;;;;;4996639;28;20049;-72
2022/10/08 05:15:48;;;;;;;25.65;5.93;;;;;;;;;;4980408;28;20049;-73
2022/10/08 05:18:15;;;;;;;18.33;5.22;;;;;;;;;;5014043;28;20049;-72
2022/10/08 05:20:41;;;;;;;15.88;5.65;;;;;;;;;;5014264;28;20480;-72
2022/10/08 05:23:07;;;;;;;15.77;5.20;;;;;;;;;;4996753;28;20041;-73
2022/10/08 05:25:33;;;;;;;26.40;5.70;;;;;;;;;;4996177;28;20041;-72
2022/10/08 05:28:00;;;;;;;20.77;5.85;;;;;;;;;;5013746;28;20089;-72
2022/10/08 05:30:26;;;;;;;21.25;5.43;;;;;;;;;;5013636;28;20050;-73
2022/10/08 05:32:52;;;;;;;20.20;5.88;;;;;;;;;;4996613;28;20057;-72
2022/10/08 05:35:18;;;;;;;18.00;6.03;;;;;;;;;;5013642;28;20133;-72
2022/10/08 05:37:44;;;;;;;24.05;5.38;;;;;;;;;;4996843;28;20045;-72
2022/10/08 05:40:10;;;;;;;20.77;5.85;;;;;;;;;;5013364;28;20474;-72
2022/10/08 05:42:36;;;;;;;17.55;5.55;;;;;;;;;;4995521;28;20049;-73
2022/10/08 05:45:03;;;;;;;18.70;5.93;;;;;;;;;;5012687;28;20130;-73
2022/10/08 05:47:29;;;;;;;;;;;;;;;;;;5013321;28;20076;-72
2022/10/08 05:49:57;;;;;;;18.23;5.30;;;;;;;;;;4995558;28;20004;-72
2022/10/08 05:52:25;;;;;;;19.50;5.85;;;;;;;;;;4995644;28;20402;-73
2022/10/08 05:54:51;;;;;;;20.33;5.68;;;;;;;;;;5013409;28;20056;-73
2022/10/08 05:57:18;;;;;;;19.92;5.25;;;;;;;;;;4979983;28;20049;-72
2022/10/08 05:59:44;;;;;;;19.25;5.25;;;;;;;;;;4979700;28;20176;-72
2022/10/08 06:02:10;;;;;;;19.20;5.35;;;;;;;;;;5013288;28;20053;-72
2022/10/08 06:04:36;;;;;;;18.52;4.85;;;;;;;;;;5013940;28;20362;-72
2022/10/08 06:07:02;;;;;;;21.52;5.85;;;;;;;;;;4979845;28;20050;-72
2022/10/08 06:09:28;;;;;;;19.33;5.45;;;;;;;;;;5013735;28;20046;-73
2022/10/08 06:11:54;;;;;;;22.00;4.93;;;;;;;;;;5013164;28;20056;-72
2022/10/08 06:14:24;;;;;;;18.05;4.57;;;;;;;;;;5013115;28;20089;-73
2022/10/08 06:16:50;;;;;;;20.17;4.78;;;;;;;;;;4979910;28;20041;-71
2022/10/08 06:19:16;;;;;;;21.77;5.15;;;;;;;;;;5012981;28;20107;-74
2022/10/08 06:21:42;;;;;;;19.98;5.15;;;;;;;;;;5013575;28;20149;-73
2022/10/08 06:24:10;;;;;;;18.38;4.60;;;;;;;;;;4995588;28;20513;-74
2022/10/08 06:26:36;;;;;;;24.95;5.60;;;;;;;;;;4995621;28;20076;-73
2022/10/08 06:29:06;;;;;;;16.27;4.05;;;;;;;;;;4996293;28;20115;-73
2022/10/08 06:31:33;;;;;;;17.17;4.60;;;;;;;;;;4979348;28;20054;-74
2022/10/08 06:34:03;;;;;;;22.90;5.38;;;;;;;;;;4995654;28;20132;-73
2022/10/08 06:36:29;;;;;;;21.27;5.10;;;;;;;;;;4995951;28;20053;-75
2022/10/08 06:38:57;;;;;;;18.20;4.32;;;;;;;;;;5016747;28;20137;-73
2022/10/08 06:41:23;;;;;;;22.48;5.18;;;;;;;;;;4999485;28;20045;-72
2022/10/08 06:43:49;;;;;;;22.50;4.68;;;;;;;;;;4999326;28;20465;-73
2022/10/08 06:46:15;;;;;;;;;;;;;;;;;;4983967;28;20501;-71
2022/10/08 06:48:41;;;;;;;23.95;4.75;;;;;;;;;;5016517;28;20004;-76
2022/10/08 06:51:11;;;;;;;20.75;4.28;;;;;;;;;;4982650;28;20049;-74
2022/10/08 06:53:37;;;;;;;21.33;5.00;;;;;;;;;;4982922;28;20089;-71
2022/10/08 06:56:04;;;;;;;19.05;4.15;;;;;;;;;;5016618;28;20045;-76
2022/10/08 06:58:31;;;;;;;18.52;4.57;;;;;;;;;;4999262;28;20473;-72
2022/10/08 07:01:09;;;;;;;18.65;3.60;;;;;;;;;;5016375;28;20042;-70
2022/10/08 07:03:35;;;;;;;12.55;2.75;;;;;;;;;;5016778;28;20057;-73
2022/10/08 07:06:03;;;;;;;12.18;3.10;;;;;;;;;;5016117;28;20453;-73
2022/10/08 07:08:29;;;;;;;12.80;2.80;;;;;;;;;;5016781;28;20111;-73
2022/10/08 07:11:02;;;;;;;14.73;3.13;;;;;;;;;;5016287;28;20448;-73
2022/10/08 07:13:28;;;;;;;13.98;3.20;;;;;;;;;;5015904;28;20508;-72
2022/10/08 07:15:54;;;;;;;;;;;;;;;;;;4999030;28;20042;-72
2022/10/08 07:18:20;;;;;;;12.73;3.13;;;;;;;;;;5016816;28;19921;-72
2022/10/08 07:20:53;;;;;;;15.05;3.20;;;;;;;;;;5015944;28;20089;-74
2022/10/08 07:23:19;;;;;;;11.38;2.92;;;;;;;;;;4998883;28;20049;-72
2022/10/08 07:25:54;;;;;;;12.93;3.15;;;;;;;;;;5015858;28;20119;-74
2022/10/08 07:28:20;;;;;;;16.30;4.20;;;;;;;;;;5015835;28;20427;-71
2022/10/08 07:30:46;;;;;;;16.38;3.60;;;;;;;;;;5015645;28;20129;-73
2022/10/08 07:33:12;;;;;;;13.70;3.33;;;;;;;;;;4998089;28;20477;-72
2022/10/08 07:35:38;;;;;;;12.63;3.20;;;;;;;;;;5015742;28;20477;-72
2022/10/08 07:38:04;;;;;;;16.20;3.95;;;;;;;;;;5015764;28;20406;-72
2022/10/08 07:40:30;;;;;;;14.20;3.30;;;;;;;;;;5015755;28;20493;-72
2022/10/08 07:42:56;;;;;;;12.85;3.28;;;;;;;;;;5015852;28;20081;-76
2022/10/08 07:45:22;;;;;;;12.38;3.08;;;;;;;;;;4998305;28;20100;-75
2022/10/08 07:47:48;;;;;;;12.65;3.08;;;;;;;;;;4997295;28;20050;-74
2022/10/08 07:50:14;;;;;;;15.82;3.13;;;;;;;;;;4997472;28;20132;-76
2022/10/08 07:52:40;;;;;;;14.82;3.58;;;;;;;;;;4997728;28;20049;-76
2022/10/08 07:55:06;;;;;;;13.82;3.40;;;;;;;;;;4981837;28;20042;-72
2022/10/08 07:57:32;;;;;;;16.85;3.97;;;;;;;;;;4998049;28;20042;-73
2022/10/08 07:59:58;;;;;;;18.65;3.63;;;;;;;;;;5015042;28;20049;-74
2022/10/08 08:02:24;;;;;;;19.65;3.78;;;;;;;;;;4997234;28;20046;-75
2022/10/08 08:04:51;;;;;;;18.63;3.58;;;;;;;;;;4997257;28;20057;-75
2022/10/08 08:07:17;;;;;;;17.52;3.50;;;;;;;;;;4997216;28;20057;-73
2022/10/08 08:09:43;;;;;;;17.13;3.05;;;;;;;;;;4996939;28;20465;-74
2022/10/08 08:12:09;;;;;;;17.85;2.83;;;;;;;;;;5014866;28;20355;-80
2022/10/08 08:14:35;;;;;;;14.85;2.92;;;;;;;;;;4981054;28;20045;-79
2022/10/08 08:17:01;;;;;;;15.15;3.30;;;;;;;;;;4981107;28;20472;-74
2022/10/08 08:19:27;;;;;;;16.50;3.78;;;;;;;;;;4981671;28;20050;-76
2022/10/08 08:21:53;;;;;;;13.18;4.13;;;;;;;;;;4964858;28;20057;-77
2022/10/08 08:24:20;;;;;;;20.30;4.63;;;;;;;;;;4981948;28;20449;-71
2022/10/08 08:26:46;;;;;;;17.00;5.10;;;;;;;;;;5015044;28;20407;-71
2022/10/08 08:29:14;;;;;;;17.52;5.15;;;;;;;;;;5014539;28;20108;-74
2022/10/08 08:31:42;;;;;;;16.30;3.58;;;;;;;;;;4996844;28;20117;-72
2022/10/08 08:34:09;;;;;;;17.23;3.70;;;;;;;;;;5014397;28;20544;-80
2022/10/08 08:36:36;;;;;;;16.23;3.60;;;;;;;;;;4996900;28;20378;-74
2022/10/08 08:39:04;;;;;;;13.55;2.95;;;;;;;;;;5014011;28;20038;-72
2022/10/08 08:41:45;;;;;;;14.25;3.00;;;;;;;;;;5014480;28;20042;-74
2022/10/08 08:44:17;;;;;;;12.48;2.53;;;;;;;;;;4981125;28;20053;-73
2022/10/08 08:47:05;;;;;;;15.40;3.10;;;;;;;;;;5014390;28;20042;-79
2022/10/08 08:49:35;;;;;;;11.55;2.90;;;;;;;;;;4997447;28;20041;-73
2022/10/08 08:52:02;;;;;;;14.85;3.08;;;;;;;;;;4996837;28;20147;-78
2022/10/08 08:54:29;;;;;;;12.10;2.88;;;;;;;;;;4981020;28;20103;-74
2022/10/08 08:56:55;;;;;;;13.95;2.40;;;;;;;;;;5014113;28;20057;-74
2022/10/08 08:59:26;;;;;;;17.13;2.90;;;;;;;;;;4996151;28;20050;-74
2022/10/08 09:01:55;;;;;;;12.60;3.08;;;;;;;;;;4979537;28;20111;-74
2022/10/08 09:04:24;;;;;;;17.88;3.80;;;;;;;;;;4995652;28;20053;-74
2022/10/08 09:06:51;;;;;;;16.58;4.68;;;;;;;;;;5013702;28;20085;-75
2022/10/08 09:09:20;;;;;;;16.98;4.43;;;;;;;;;;5014053;28;20104;-75
2022/10/08 09:11:46;;;;;;;15.45;5.03;;;;;;;;;;4979330;28;20497;-75
2022/10/08 09:14:21;;;;;;;16.65;4.72;;;;;;;;;;4996374;28;20548;-76
2022/10/08 09:16:47;;;;;;;24.50;4.28;;;;;;;;;;4996214;28;20092;-75
2022/10/08 09:19:13;;;;;;;15.27;2.67;;;;;;;;;;5013559;28;20112;-77
2022/10/08 09:21:39;;;;;;;14.10;2.90;;;;;;;;;;5014080;28;20429;-76
2022/10/08 09:24:05;;;;;;;15.35;2.90;;;;;;;;;;5013880;28;20061;-83
2022/10/08 09:26:35;;;;;;;14.85;2.80;;;;;;;;;;4980719;28;20054;-81
2022/10/08 09:29:02;;;;;;;18.15;3.22;;;;;;;;;;4996802;28;20092;-85
2022/10/08 09:31:42;;;;;;;14.57;3.47;;;;;;;;;;4996327;28;20134;-85
2022/10/08 09:34:17;;;;;;;15.80;2.55;;;;;;;;;;4996608;28;20183;-82
2022/10/08 09:36:45;;;;;;;15.02;3.00;;;;;;;;;;4980449;28;20188;-87
2022/10/08 09:39:25;;;;;;;20.75;3.30;;;;;;;;;;4986893;28;20104;-85
2022/10/08 09:42:03;;;;;;;15.27;2.85;;;;;;;;;;4980519;28;20084;-86
2022/10/08 09:44:38;;;;;;;16.67;3.38;;;;;;;;;;4980739;28;20056;-71
2022/10/08 09:47:05;;;;;;;17.45;2.92;;;;;;;;;;5014656;28;20048;-78
2022/10/08 09:49:32;;;;;;;11.38;2.40;;;;;;;;;;4995875;28;20085;-79
2022/10/08 09:52:01;;;;;;;16.27;2.78;;;;;;;;;;4980243;28;20057;-77
2022/10/08 09:54:29;;;;;;;14.43;2.58;;;;;;;;;;5013052;28;20053;-75
2022/10/08 09:56:56;;;;;;;12.00;3.28;;;;;;;;;;4995204;28;20141;-79
2022/10/08 09:59:24;;;;;;;16.13;2.90;;;;;;;;;;4979399;28;20053;-80
2022/10/08 10:01:52;;;;;;;15.65;2.90;;;;;;;;;;4981206;28;20495;-82
2022/10/08 10:04:30;;;;;;;15.82;3.40;;;;;;;;;;4996635;28;20064;-80
2022/10/08 10:06:56;;;;;;;16.13;3.97;;;;;;;;;;4997472;28;20042;-80
2022/10/08 10:09:42;;;;;;;25.85;3.72;;;;;;;;;;4996648;28;20052;-80
2022/10/08 10:12:28;;;;;;;15.82;3.17;;;;;;;;;;5007884;28;20049;-83
2022/10/08 10:14:55;;;;;;;18.08;4.50;;;;;;;;;;5001127;28;20122;-82
2022/10/08 10:17:24;;;;;;;14.43;3.13;;;;;;;;;;5000220;28;20046;-84
2022/10/08 10:19:59;;;;;;;14.07;2.70;;;;;;;;;;4984271;28;20038;-82
2022/10/08 10:22:28;;;;;;;14.75;3.00;;;;;;;;;;4985367;28;20090;-82
2022/10/08 10:25:14;;;;;;;15.07;2.85;;;;;;;;;;4999782;28;20042;-76
2022/10/08 10:27:44;;;;;;;15.95;3.47;;;;;;;;;;4987513;28;20514;-86
2022/10/08 10:30:23;;;;;;;16.58;3.00;;;;;;;;;;5019898;28;20370;-88
2022/10/08 10:32:52;;;;;;;19.77;3.22;;;;;;;;;;5001575;28;20440;-71
2022/10/08 10:35:24;;;;;;;15.63;3.17;;;;;;;;;;5017070;28;20041;-76
2022/10/08 10:37:59;;;;;;;16.23;2.97;;;;;;;;;;5016798;28;20085;-77
2022/10/08 10:40:35;;;;;;;12.48;2.78;;;;;;;;;;5016906;28;20096;-74
2022/10/08 10:43:08;;;;;;;17.35;2.88;;;;;;;;;;4999014;28;20050;-75
2022/10/08 10:45:35;;;;;;;16.35;3.38;;;;;;;;;;4999600;28;20085;-76
2022/10/08 10:48:01;;;;;;;13.75;3.20;;;;;;;;;;4983073;28;20505;-75
2022/10/08 10:50:50;;;;;;;19.35;3.10;;;;;;;;;;4999717;28;20041;-76
2022/10/08 10:53:25;;;;;;;15.85;3.08;;;;;;;;;;5006011;28;20053;-79
2022/10/08 10:55:59;;;;;;;18.95;4.72;;;;;;;;;;4999247;28;20427;-78
2022/10/08 10:58:46;;;;;;;13.85;2.95;;;;;;;;;;5016119;28;20452;-70
2022/10/08 11:01:19;;;;;;;11.57;2.73;;;;;;;;;;4999373;28;20129;-76
2022/10/08 11:03:57;;;;;;;12.98;2.65;;;;;;;;;;5016178;28;20289;-73
2022/10/08 11:06:42;;;;;;;12.57;3.03;;;;;;;;;;5016081;28;20054;-77
2022/10/08 11:09:20;;;;;;;14.45;3.00;;;;;;;;;;4998874;28;20058;-73
2022/10/08 11:12:02;;;;;;;;;;;;;;;;;;;;;
2022/10/08 11:14:30;;;;;;;17.17;3.00;;;;;;;;;;4999257;28;20065;-74
2022/10/08 11:16:56;;;;;;;16.63;3.30;;;;;;;;;;5016217;28;20053;-75
2022/10/08 11:19:28;;;;;;;15.18;3.08;;;;;;;;;;4998469;28;20119;-74
2022/10/08 11:21:57;;;;;;;13.48;2.95;;;;;;;;;;5016110;28;20073;-73
2022/10/08 11:24:23;;;;;;;15.63;2.72;;;;;;;;;;4998383;28;20488;-75
2022/10/08 11:27:10;;;;;;;13.02;2.55;;;;;;;;;;4998434;28;20056;-70
2022/10/08 11:29:36;;;;;;;15.90;3.13;;;;;;;;;;4981720;28;20057;-69
2022/10/08 11:32:02;;;;;;;17.92;3.40;;;;;;;;;;5015309;28;20085;-70
2022/10/08 11:34:28;;;;;;;;;;;;;;;;;;4998748;28;20041;-72
2022/10/08 11:37:01;;;;;;;13.85;3.13;;;;;;;;;;5015759;28;19976;-71
2022/10/08 11:39:31;;;;;;;11.02;2.20;;;;;;;;;;5016346;28;20045;-70
2022/10/08 11:42:03;;;;;;;12.65;2.53;;;;;;;;;;5015961;28;20045;-69
2022/10/08 11:44:29;;;;;;;10.85;2.65;;;;;;;;;;4997977;28;20551;-68
2022/10/08 11:47:15;;;;;;;10.63;2.50;;;;;;;;;;5015728;28;20184;-71
2022/10/08 11:49:41;;;;;;;11.77;2.25;;;;;;;;;;5015807;28;20111;-70
2022/10/08 11:52:13;;;;;;;8.95;2.15;;;;;;;;;;5015311;28;20133;-70
2022/10/08 11:54:41;;;;;;;11.88;3.00;;;;;;;;;;5015434;28;20133;-70
2022/10/08 11:57:18;;;;;;;14.95;3.13;;;;;;;;;;5015394;28;20057;-70
2022/10/08 12:00:00;;;;;;;10.70;2.60;;;;;;;;;;5015268;28;20501;-70
2022/10/08 12:02:36;;;;;;;13.45;2.78;;;;;;;;;;5014952;28;20049;-70
2022/10/08 12:05:20;;;;;;;15.38;3.05;;;;;;;;;;5015292;28;20046;-70
2022/10/08 12:07:49;;;;;;;12.68;3.00;;;;;;;;;;5015234;28;20046;-70
2022/10/08 12:10:18;;;;;;;16.25;3.20;;;;;;;;;;5015094;28;20045;-70
2022/10/08 12:12:51;;;;;;;20.00;2.75;;;;;;;;;;5015104;28;20046;-70
2022/10/08 12:15:23;;;;;;;15.48;2.92;;;;;;;;;;5015059;28;20046;-70
2022/10/08 12:18:08;;;;;;;17.52;3.45;;;;;;;;;;5015074;28;20046;-71
2022/10/08 12:20:36;;;;;;;16.55;3.47;;;;;;;;;;5015166;28;20057;-71
2022/10/08 12:23:02;;;;;;;18.25;3.28;;;;;;;;;;5014903;28;20054;-71
2022/10/08 12:25:33;;;;;;;19.15;3.60;;;;;;;;;;5015436;28;20049;-75
2022/10/08 12:28:18;;;;;;;18.80;3.33;;;;;;;;;;4996801;28;20042;-75
2022/10/08 12:30:54;;;;;;;17.70;3.53;;;;;;;;;;5013983;28;20088;-73
2022/10/08 12:33:21;;;;;;;18.63;3.50;;;;;;;;;;5014277;28;20493;-77
2022/10/08 12:35:58;;;;;;;18.40;3.55;;;;;;;;;;5013925;28;20077;-70
2022/10/08 12:38:24;;;;;;;;;;;;;;;;;;5014734;28;20092;-81
2022/10/08 12:41:02;;;;;;;17.05;3.20;;;;;;;;;;5014407;28;19925;-67
2022/10/08 12:43:47;;;;;;;14.88;3.10;;;;;;;;;;5013644;28;20045;-70
2022/10/08 12:46:23;;;;;;;10.13;2.30;;;;;;;;;;4996466;28;20050;-69
2022/10/08 12:48:58;;;;;;;13.35;2.85;;;;;;;;;;5013705;28;20056;-68
2022/10/08 12:51:28;;;;;;;15.10;2.80;;;;;;;;;;5013159;28;20042;-68
2022/10/08 12:53:55;;;;;;;13.77;2.85;;;;;;;;;;5013674;28;20143;-69
2022/10/08 12:56:24;;;;;;;15.55;3.70;;;;;;;;;;5013350;28;20057;-68
2022/10/08 12:58:51;;;;;;;18.83;2.92;;;;;;;;;;4996422;28;20089;-66
2022/10/08 13:01:19;;;;;;;17.27;3.22;;;;;;;;;;5013907;28;20148;-69
2022/10/08 13:03:45;;;;;;;12.68;3.00;;;;;;;;;;5014176;28;20053;-69
2022/10/08 13:06:25;;;;;;;12.23;2.40;;;;;;;;;;5014163;28;20042;-68
2022/10/08 13:08:52;;;;;;;9.70;2.30;;;;;;;;;;5014721;28;20085;-68
2022/10/08 13:11:18;;;;;;;9.82;2.17;;;;;;;;;;5013618;28;20085;-68
2022/10/08 13:13:48;;;;;;;7.88;2.00;;;;;;;;;;5013671;28;20052;-68
2022/10/08 13:16:21;;;;;;;13.93;2.78;;;;;;;;;;5013456;28;20046;-69
2022/10/08 13:18:52;;;;;;;9.55;2.35;;;;;;;;;;5013162;28;20180;-69
2022/10/08 13:21:26;;;;;;;11.35;2.28;;;;;;;;;;5012609;28;20058;-68
2022/10/08 13:23:52;;;;;;;10.52;2.03;;;;;;;;;;5013384;28;20085;-69
2022/10/08 13:26:38;;;;;;;11.45;2.10;;;;;;;;;;5013122;28;20050;-67
2022/10/08 13:29:22;;;;;;;11.07;2.30;;;;;;;;;;5013183;28;20432;-69
2022/10/08 13:32:11;;;;;;;6.68;1.88;;;;;;;;;;5012997;28;20085;-65
2022/10/08 13:34:38;;;;;;;10.30;2.10;;;;;;;;;;5002679;28;20061;-67
2022/10/08 13:37:05;;;;;;;12.32;2.40;;;;;;;;;;5013340;28;20050;-65
2022/10/08 13:39:33;;;;;;;11.95;2.70;;;;;;;;;;5013385;28;20042;-68
2022/10/08 13:42:00;;;;;;;11.27;2.38;;;;;;;;;;5012786;28;20050;-68
2022/10/08 13:44:27;;;;;;;16.17;3.20;;;;;;;;;;5013595;28;20054;-67
2022/10/08 13:46:53;;;;;;;13.32;3.10;;;;;;;;;;5012810;28;20089;-68
2022/10/08 13:49:21;;;;;;;12.73;2.38;;;;;;;;;;4995415;28;20046;-65
2022/10/08 13:51:47;;;;;;;17.85;3.17;;;;;;;;;;5012817;28;20512;-67
2022/10/08 13:54:16;;;;;;;16.75;3.03;;;;;;;;;;5012977;28;20088;-67
2022/10/08 13:56:42;;;;;;;13.63;2.72;;;;;;;;;;5012626;28;20049;-68
2022/10/08 13:59:09;;;;;;;12.77;3.00;;;;;;;;;;4979489;28;20054;-67
2022/10/08 14:01:35;;;;;;;14.63;3.17;;;;;;;;;;5012944;28;20092;-65
2022/10/08 14:04:01;;;;;;;14.70;3.42;;;;;;;;;;5013199;28;20046;-67
2022/10/08 14:06:27;;;;;;;14.40;3.00;;;;;;;;;;5012911;28;20072;-66
2022/10/08 14:08:53;;;;;;;13.50;3.28;;;;;;;;;;5013323;28;20120;-67
2022/10/08 14:11:19;;;;;;;13.50;2.45;;;;;;;;;;5013350;28;20038;-65
2022/10/08 14:13:45;;;;;;;13.20;2.88;;;;;;;;;;5013340;28;20453;-68
2022/10/08 14:16:12;;;;;;;10.00;2.58;;;;;;;;;;5013629;28;20355;-66
2022/10/08 14:18:38;;;;;;;12.50;2.75;;;;;;;;;;4995738;28;20393;-67
2022/10/08 14:21:05;;;;;;;10.30;2.50;;;;;;;;;;5013105;28;20069;-67
2022/10/08 14:23:31;;;;;;;10.60;2.65;;;;;;;;;;5013048;28;20492;-67
2022/10/08 14:25:57;;;;;;;14.82;3.30;;;;;;;;;;5012584;28;20469;-68
2022/10/08 14:28:23;;;;;;;10.95;2.40;;;;;;;;;;5012871;28;20406;-68
2022/10/08 14:30:49;;;;;;;12.93;2.65;;;;;;;;;;5012174;28;20053;-67
2022/10/08 14:33:16;;;;;;;10.52;2.30;;;;;;;;;;5012479;28;20132;-67
2022/10/08 14:35:42;;;;;;;11.90;2.45;;;;;;;;;;5012152;28;20046;-68
2022/10/08 14:38:08;;;;;;;11.90;2.50;;;;;;;;;;5013441;28;20393;-65
2022/10/08 14:40:34;;;;;;;10.73;2.55;;;;;;;;;;5012803;28;20068;-65
2022/10/08 14:43:00;;;;;;;8.98;2.17;;;;;;;;;;5012834;28;20053;-68
2022/10/08 14:45:26;;;;;;;10.00;2.45;;;;;;;;;;5012171;28;20054;-67
2022/10/08 14:47:52;;;;;;;13.98;2.50;;;;;;;;;;5012523;28;20104;-67
2022/10/08 14:50:18;;;;;;;15.70;2.65;;;;;;;;;;5012637;28;20042;-67